createdAt,value
2023-04-29T00:01:30.815Z,61.66
2023-04-29T00:03:58.783Z,62.56
2023-04-29T00:06:25.965Z,62.73
2023-04-29T00:08:53.536Z,64.08
2023-04-29T00:11:21.052Z,62.70
2023-04-29T00:13:48.031Z,62.43
2023-04-29T00:16:15.276Z,62.21
2023-04-29T00:18:42.245Z,62.03
2023-04-29T00:21:09.314Z,62.15
2023-04-29T00:23:36.663Z,62.73
2023-04-29T00:26:03.760Z,63.24
2023-04-29T00:28:30.780Z,64.61
2023-04-29T00:30:58.235Z,62.82
2023-04-29T00:33:25.360Z,63.90
2023-04-29T00:35:52.370Z,62.66
2023-04-29T00:38:19.438Z,62.55
2023-04-29T00:40:46.630Z,62.25
2023-04-29T00:43:13.721Z,62.16
2023-04-29T00:45:40.823Z,62.25
2023-04-29T00:48:08.122Z,62.29
2023-04-29T00:50:36.963Z,62.21
2023-04-29T00:53:04.275Z,62.38
2023-04-29T00:55:33.247Z,61.95
2023-04-29T00:58:00.972Z,61.84
2023-04-29T01:00:28.811Z,61.41
2023-04-29T01:02:57.283Z,62.95
2023-04-29T01:05:25.375Z,64.24
2023-04-29T01:08:17.068Z,62.60
2023-04-29T01:10:55.409Z,61.47
2023-04-29T01:13:42.918Z,63.41
2023-04-29T01:16:19.710Z,63.37
2023-04-29T01:18:51.085Z,62.78
2023-04-29T01:21:18.417Z,62.73
2023-04-29T01:23:46.132Z,62.15
2023-04-29T01:26:14.351Z,64.00
2023-04-29T01:29:19.267Z,66.22
2023-04-29T01:31:52.362Z,64.60
2023-04-29T01:34:45.132Z,63.96
2023-04-29T01:37:23.003Z,63.83
2023-04-29T01:39:52.954Z,63.09
2023-04-29T01:42:46.253Z,62.89
2023-04-29T01:45:21.914Z,64.36
2023-04-29T01:47:53.861Z,67.13
2023-04-29T01:50:21.584Z,65.74
2023-04-29T01:52:48.786Z,63.83
2023-04-29T01:55:15.754Z,63.57
2023-04-29T01:57:42.768Z,64.57
2023-04-29T02:00:11.855Z,64.43
2023-04-29T02:02:38.932Z,64.33
2023-04-29T02:05:06.192Z,64.73
2023-04-29T02:07:33.349Z,64.96
2023-04-29T02:10:00.271Z,64.24
2023-04-29T02:12:27.270Z,63.70
2023-04-29T02:14:54.610Z,62.50
2023-04-29T02:19:48.749Z,64.49
2023-04-29T02:22:16.450Z,63.14
2023-04-29T02:24:43.689Z,63.77
2023-04-29T02:27:10.609Z,64.17
2023-04-29T02:29:37.778Z,65.84
2023-04-29T02:32:04.990Z,69.62
2023-04-29T02:34:32.470Z,72.40
2023-04-29T02:36:59.477Z,69.55
2023-04-29T02:39:26.372Z,68.19
2023-04-29T02:41:55.944Z,67.29
2023-04-29T02:44:23.008Z,68.69
2023-04-29T02:46:50.041Z,70.09
2023-04-29T02:49:17.053Z,69.60
2023-04-29T02:51:44.014Z,70.26
2023-04-29T02:54:12.115Z,68.87
2023-04-29T02:56:39.177Z,67.90
2023-04-29T02:59:06.639Z,66.96
2023-04-29T03:01:33.943Z,67.07
2023-04-29T03:04:01.183Z,67.15
2023-04-29T03:06:28.956Z,69.57
2023-04-29T03:08:56.345Z,70.98
2023-04-29T03:11:25.100Z,69.61
2023-04-29T03:13:52.296Z,70.13
2023-04-29T03:16:19.301Z,72.28
2023-04-29T03:18:46.294Z,78.08
2023-04-29T03:21:13.255Z,81.85
2023-04-29T03:23:40.429Z,79.17
2023-04-29T03:26:07.629Z,78.39
2023-04-29T03:28:34.633Z,77.49
2023-04-29T03:31:02.156Z,76.98
2023-04-29T03:33:29.149Z,77.94
2023-04-29T03:35:56.395Z,75.75
2023-04-29T03:38:23.398Z,74.25
2023-04-29T03:40:50.407Z,75.31
2023-04-29T03:43:17.428Z,74.48
2023-04-29T03:45:44.603Z,77.07
2023-04-29T03:48:12.765Z,75.30
2023-04-29T03:50:39.740Z,75.92
2023-04-29T03:53:06.813Z,74.65
2023-04-29T03:55:33.723Z,75.12
2023-04-29T03:58:00.891Z,75.32
2023-04-29T04:00:31.391Z,75.50
2023-04-29T04:02:59.290Z,80.42
2023-04-29T04:05:26.808Z,79.13
2023-04-29T04:07:54.051Z,81.06
2023-04-29T04:10:21.035Z,84.99
2023-04-29T04:12:48.030Z,93.83
2023-04-29T04:15:15.443Z,94.51
2023-04-29T04:17:42.402Z,94.49
2023-04-29T04:20:09.846Z,95.09
2023-04-29T04:22:36.929Z,94.40
2023-04-29T04:25:04.918Z,93.56
2023-04-29T04:27:31.862Z,92.77
2023-04-29T04:29:58.785Z,91.37
2023-04-29T04:32:26.238Z,93.09
2023-04-29T04:34:53.172Z,91.58
2023-04-29T04:37:20.147Z,91.82
2023-04-29T04:39:48.034Z,89.65
2023-04-29T04:42:15.059Z,93.42
2023-04-29T04:44:42.207Z,93.44
2023-04-29T04:47:09.293Z,97.70
2023-04-29T04:49:36.428Z,95.08
2023-04-29T04:52:04.473Z,93.27
2023-04-29T04:54:35.911Z,93.93
2023-04-29T04:57:06.355Z,91.91
2023-04-29T04:59:34.509Z,90.57
2023-04-29T05:02:01.530Z,95.72
2023-04-29T05:04:28.723Z,94.95
2023-04-29T05:06:55.772Z,93.40
2023-04-29T05:09:23.806Z,93.02
2023-04-29T05:11:51.390Z,91.23
2023-04-29T05:14:18.785Z,88.83
2023-04-29T05:16:46.878Z,87.79
2023-04-29T05:19:13.897Z,86.09
2023-04-29T05:21:40.965Z,85.81
2023-04-29T05:24:07.944Z,84.14
2023-04-29T05:26:34.931Z,83.66
2023-04-29T05:29:02.049Z,82.37
2023-04-29T05:31:30.516Z,83.35
2023-04-29T05:33:57.728Z,88.07
2023-04-29T05:36:24.808Z,87.26
2023-04-29T05:38:51.732Z,82.71
2023-04-29T05:41:18.637Z,85.54
2023-04-29T05:43:45.687Z,81.51
2023-04-29T05:46:12.693Z,87.01
2023-04-29T05:48:39.810Z,87.95
2023-04-29T05:51:06.810Z,87.30
2023-04-29T05:53:33.948Z,84.42
2023-04-29T05:56:00.978Z,88.17
2023-04-29T05:58:27.961Z,84.30
2023-04-29T06:00:55.110Z,91.37
2023-04-29T06:03:22.231Z,91.67
2023-04-29T06:05:50.443Z,93.51
2023-04-29T06:08:17.728Z,92.52
2023-04-29T06:10:44.758Z,92.40
2023-04-29T06:13:11.974Z,83.58
2023-04-29T06:15:39.190Z,80.24
2023-04-29T06:18:06.226Z,83.24
2023-04-29T06:20:34.910Z,80.47
2023-04-29T06:23:03.150Z,77.41
2023-04-29T06:25:30.393Z,76.46
2023-04-29T06:28:00.572Z,76.47
2023-04-29T06:30:27.608Z,73.21
2023-04-29T06:32:54.644Z,72.39
2023-04-29T06:35:21.692Z,66.48
2023-04-29T06:37:48.714Z,66.13
2023-04-29T06:40:15.751Z,68.00
2023-04-29T06:42:44.013Z,71.00
2023-04-29T06:45:11.612Z,77.53
2023-04-29T06:47:38.608Z,74.02
2023-04-29T06:50:06.111Z,73.65
2023-04-29T06:52:33.742Z,71.78
2023-04-29T06:55:01.085Z,76.82
2023-04-29T06:57:28.017Z,70.87
2023-04-29T06:59:55.219Z,72.29
2023-04-29T07:02:22.425Z,71.75
2023-04-29T07:04:50.434Z,71.21
2023-04-29T07:07:17.528Z,69.09
2023-04-29T07:09:44.731Z,69.28
2023-04-29T07:12:11.754Z,66.20
2023-04-29T07:14:38.772Z,65.64
2023-04-29T07:17:05.731Z,64.86
2023-04-29T07:19:32.777Z,64.54
2023-04-29T07:22:00.155Z,62.21
2023-04-29T07:24:27.150Z,60.50
2023-04-29T07:26:54.138Z,62.26
2023-04-29T07:29:21.073Z,62.24
2023-04-29T07:31:48.187Z,62.52
2023-04-29T07:34:15.263Z,63.35
2023-04-29T07:36:42.192Z,61.20
2023-04-29T07:39:09.386Z,60.80
2023-04-29T07:41:36.367Z,61.95
2023-04-29T07:44:03.396Z,61.43
2023-04-29T07:46:30.383Z,62.13
2023-04-29T07:48:58.645Z,60.24
2023-04-29T07:51:25.814Z,58.26
2023-04-29T07:53:52.752Z,59.48
2023-04-29T07:56:20.261Z,59.29
2023-04-29T07:58:47.425Z,60.98
2023-04-29T08:01:15.812Z,60.38
2023-04-29T08:03:43.251Z,59.74
2023-04-29T08:06:10.535Z,59.79
2023-04-29T08:08:37.796Z,61.11
2023-04-29T08:11:05.009Z,60.16
2023-04-29T08:13:32.010Z,60.18
2023-04-29T08:15:59.016Z,59.62
2023-04-29T08:18:26.013Z,59.51
2023-04-29T08:20:53.497Z,58.28
2023-04-29T08:23:20.406Z,57.70
2023-04-29T08:25:47.669Z,58.17
2023-04-29T08:28:14.688Z,59.75
2023-04-29T08:30:41.862Z,56.67
2023-04-29T08:33:09.461Z,57.74
2023-04-29T08:35:39.590Z,57.72
2023-04-29T08:38:07.403Z,55.28
2023-04-29T08:40:42.729Z,55.00
2023-04-29T08:43:10.951Z,57.64
2023-04-29T08:45:40.005Z,54.79
2023-04-29T08:48:10.901Z,59.06
2023-04-29T08:50:42.092Z,56.63
2023-04-29T08:53:10.909Z,55.29
2023-04-29T08:55:46.013Z,53.16
2023-04-29T08:58:14.149Z,53.87
2023-04-29T09:00:43.512Z,54.00
2023-04-29T09:03:29.822Z,57.49
2023-04-29T09:06:00.591Z,54.35
2023-04-29T09:08:28.336Z,54.06
2023-04-29T09:10:56.799Z,54.66
2023-04-29T09:13:28.854Z,53.78
2023-04-29T09:15:56.371Z,57.71
2023-04-29T09:18:49.374Z,58.25
2023-04-29T09:21:27.747Z,54.52
2023-04-29T09:23:56.671Z,52.45
2023-04-29T09:26:27.330Z,52.92
2023-04-29T09:29:18.545Z,54.17
2023-04-29T09:31:46.948Z,57.01
2023-04-29T09:34:14.877Z,54.30
2023-04-29T09:36:55.291Z,56.09
2023-04-29T09:39:23.758Z,55.57
2023-04-29T09:41:53.768Z,54.88
2023-04-29T09:44:24.630Z,57.71
2023-04-29T09:47:06.684Z,56.50
2023-04-29T09:49:41.986Z,53.39
2023-04-29T09:52:13.881Z,50.40
2023-04-29T09:54:43.505Z,50.05
2023-04-29T09:57:12.988Z,46.48
2023-04-29T09:59:41.019Z,46.95
2023-04-29T10:02:11.882Z,44.46
2023-04-29T10:04:42.090Z,45.50
2023-04-29T10:07:10.039Z,43.72
2023-04-29T10:09:40.314Z,44.60
2023-04-29T10:12:08.133Z,43.33
2023-04-29T10:14:42.439Z,45.16
2023-04-29T10:17:17.244Z,42.64
2023-04-29T10:19:58.781Z,42.91
2023-04-29T10:22:48.124Z,45.81
2023-04-29T10:25:20.852Z,51.66
2023-04-29T10:27:49.216Z,48.71
2023-04-29T10:30:18.121Z,51.75
2023-04-29T10:35:20.367Z,47.70
2023-04-29T10:37:49.118Z,51.26
2023-04-29T10:40:19.279Z,49.70
2023-04-29T10:42:51.357Z,48.47
2023-04-29T10:45:22.834Z,49.10
2023-04-29T10:48:11.043Z,47.69
2023-04-29T10:50:47.836Z,45.90
2023-04-29T10:53:16.208Z,44.61
2023-04-29T10:55:47.269Z,44.01
2023-04-29T10:58:37.206Z,42.42
2023-04-29T11:01:05.713Z,42.67
2023-04-29T11:03:59.704Z,41.95
2023-04-29T11:06:41.819Z,40.38
2023-04-29T11:09:21.927Z,41.93
2023-04-29T11:12:06.930Z,40.85
2023-04-29T11:14:41.052Z,40.30
2023-04-29T11:17:19.286Z,40.94
2023-04-29T11:19:49.812Z,44.76
2023-04-29T11:22:37.100Z,43.16
2023-04-29T11:25:06.163Z,42.39
2023-04-29T11:27:34.757Z,45.54
2023-04-29T11:30:05.398Z,44.74
2023-04-29T11:32:38.219Z,44.72
2023-04-29T11:35:16.136Z,46.74
2023-04-29T11:37:45.903Z,46.04
2023-04-29T11:40:13.992Z,44.86
2023-04-29T11:42:49.608Z,43.36
2023-04-29T11:45:20.758Z,44.11
2023-04-29T11:47:49.037Z,44.38
2023-04-29T11:50:19.546Z,43.97
2023-04-29T11:52:48.141Z,43.10
2023-04-29T11:55:15.447Z,41.37
2023-04-29T11:57:42.517Z,41.72
2023-04-29T12:00:14.207Z,41.33
2023-04-29T12:02:46.673Z,43.01
2023-04-29T12:05:16.203Z,44.74
2023-04-29T12:07:44.158Z,44.04
2023-04-29T12:10:12.123Z,40.91
2023-04-29T12:12:49.588Z,42.03
2023-04-29T12:15:17.015Z,43.84
2023-04-29T12:17:44.566Z,42.23
2023-04-29T12:20:12.403Z,43.20
2023-04-29T12:22:40.030Z,45.07
2023-04-29T12:25:08.150Z,44.29
2023-04-29T12:27:41.708Z,43.49
2023-04-29T12:30:10.194Z,43.35
2023-04-29T12:32:37.786Z,44.19
2023-04-29T12:35:04.998Z,46.89
2023-04-29T12:37:31.967Z,51.76
2023-04-29T12:39:58.968Z,54.00
2023-04-29T12:42:33.021Z,53.30
2023-04-29T12:45:00.044Z,52.46
2023-04-29T12:47:34.961Z,53.27
2023-04-29T12:50:01.983Z,54.99
2023-04-29T12:52:29.019Z,55.85
2023-04-29T12:54:57.656Z,57.90
2023-04-29T12:57:26.734Z,59.61
2023-04-29T12:59:53.706Z,58.05
2023-04-29T13:02:21.023Z,57.13
2023-04-29T13:04:48.355Z,55.67
2023-04-29T13:07:16.033Z,54.69
2023-04-29T13:09:43.077Z,55.10
2023-04-29T13:12:10.055Z,53.43
2023-04-29T13:14:37.128Z,53.89
2023-04-29T13:17:04.394Z,57.50
2023-04-29T13:19:49.788Z,56.35
2023-04-29T13:22:18.573Z,54.68
2023-04-29T13:24:46.203Z,57.22
2023-04-29T13:27:13.427Z,58.50
2023-04-29T13:29:40.466Z,54.73
2023-04-29T13:32:08.481Z,52.92
2023-04-29T13:34:36.267Z,51.29
2023-04-29T13:37:03.329Z,54.93
2023-04-29T13:39:30.396Z,55.09
2023-04-29T13:41:59.202Z,53.77
2023-04-29T13:44:33.280Z,57.17
2023-04-29T13:47:07.528Z,58.07
2023-04-29T13:50:20.114Z,60.04
2023-04-29T13:55:25.895Z,62.02
2023-04-29T13:58:30.770Z,61.19
2023-04-29T14:01:01.398Z,61.72
2023-04-29T14:03:13.144Z,63.58
2023-04-29T14:05:40.376Z,62.77
2023-04-29T14:08:07.586Z,57.46
2023-04-29T14:10:34.847Z,59.02
2023-04-29T14:13:01.889Z,64.16
2023-04-29T14:15:29.167Z,64.17
2023-04-29T14:17:57.293Z,67.60
2023-04-29T14:20:24.265Z,66.72
2023-04-29T14:22:51.316Z,68.73
2023-04-29T14:25:18.805Z,70.40
2023-04-29T14:27:45.954Z,65.21
2023-04-29T14:30:13.355Z,61.29
2023-04-29T14:32:40.286Z,61.13
2023-04-29T14:35:07.817Z,60.18
2023-04-29T14:37:34.737Z,57.06
2023-04-29T14:40:01.937Z,59.56
2023-04-29T14:42:28.995Z,52.54
2023-04-29T14:44:56.509Z,54.38
2023-04-29T14:47:23.589Z,54.99
2023-04-29T14:49:50.690Z,54.35
2023-04-29T14:52:17.609Z,52.21
2023-04-29T14:54:44.960Z,50.38
2023-04-29T14:57:12.169Z,49.71
2023-04-29T14:59:39.104Z,49.86
2023-04-29T15:02:06.300Z,50.19
2023-04-29T15:04:33.451Z,47.69
2023-04-29T15:07:00.429Z,47.31
2023-04-29T15:09:27.597Z,44.45
2023-04-29T15:11:54.593Z,43.93
2023-04-29T15:14:21.642Z,43.78
2023-04-29T15:16:49.297Z,45.01
2023-04-29T15:19:16.588Z,44.99
2023-04-29T15:21:43.525Z,44.93
2023-04-29T15:24:10.502Z,43.50
2023-04-29T15:26:37.481Z,44.47
2023-04-29T15:29:04.508Z,44.52
2023-04-29T15:31:31.512Z,44.85
2023-04-29T15:33:58.586Z,46.44
2023-04-29T15:36:30.547Z,47.67
2023-04-29T15:38:58.527Z,48.85
2023-04-29T15:41:26.790Z,48.90
2023-04-29T15:43:55.073Z,49.69
2023-04-29T15:46:22.319Z,51.13
2023-04-29T15:48:49.368Z,50.26
2023-04-29T15:51:16.409Z,50.84
2023-04-29T15:53:44.088Z,51.37
2023-04-29T15:56:11.768Z,52.14
2023-04-29T15:58:38.718Z,51.98
2023-04-29T16:01:05.919Z,52.60
2023-04-29T16:03:32.963Z,52.58
2023-04-29T16:06:00.186Z,52.92
2023-04-29T16:08:27.534Z,54.20
2023-04-29T16:10:54.488Z,54.09
2023-04-29T16:13:21.506Z,55.45
2023-04-29T16:15:48.469Z,55.09
2023-04-29T16:18:17.630Z,55.63
2023-04-29T16:20:45.192Z,55.07
2023-04-29T16:23:12.472Z,54.35
2023-04-29T16:25:41.620Z,55.04
2023-04-29T16:28:08.806Z,55.52
2023-04-29T16:30:36.522Z,55.52
2023-04-29T16:33:03.532Z,54.23
2023-04-29T16:35:31.158Z,56.21
2023-04-29T16:37:58.147Z,60.09
2023-04-29T16:40:25.328Z,61.89
2023-04-29T16:42:53.616Z,63.98
2023-04-29T16:45:23.755Z,66.27
2023-04-29T16:47:51.134Z,68.39
2023-04-29T16:50:18.492Z,68.46
2023-04-29T16:52:45.719Z,65.75
2023-04-29T16:55:13.373Z,71.01
2023-04-29T16:57:40.339Z,70.38
2023-04-29T17:00:10.550Z,71.07
2023-04-29T17:02:40.626Z,68.78
2023-04-29T17:05:09.253Z,66.95
2023-04-29T17:07:36.288Z,68.29
2023-04-29T17:10:04.050Z,67.92
2023-04-29T17:12:31.124Z,68.61
2023-04-29T17:14:58.091Z,73.58
2023-04-29T17:17:25.203Z,76.01
2023-04-29T17:19:52.496Z,72.49
2023-04-29T17:22:20.083Z,71.45
2023-04-29T17:24:47.279Z,71.76
2023-04-29T17:27:14.635Z,76.10
2023-04-29T17:29:41.595Z,75.61
2023-04-29T17:32:13.480Z,75.77
2023-04-29T17:34:40.808Z,74.12
2023-04-29T17:37:07.945Z,73.79
2023-04-29T17:39:34.932Z,76.29
2023-04-29T17:42:01.922Z,75.19
2023-04-29T17:44:29.095Z,74.68
2023-04-29T17:46:56.091Z,79.56
2023-04-29T17:49:23.163Z,81.68
2023-04-29T17:51:50.186Z,81.98
2023-04-29T17:54:17.306Z,79.89
2023-04-29T17:56:44.323Z,79.74
2023-04-29T17:59:11.409Z,81.69
2023-04-29T18:01:38.431Z,80.85
2023-04-29T18:04:06.374Z,77.33
2023-04-29T18:06:33.555Z,76.43
2023-04-29T18:09:00.899Z,79.40
2023-04-29T18:11:27.936Z,79.44
2023-04-29T18:13:55.116Z,81.60
2023-04-29T18:16:22.224Z,85.89
2023-04-29T18:18:53.953Z,85.35
2023-04-29T18:21:27.808Z,84.94
2023-04-29T18:23:56.075Z,85.47
2023-04-29T18:26:23.390Z,84.14
2023-04-29T18:28:51.109Z,80.09
2023-04-29T18:31:19.344Z,79.00
2023-04-29T18:33:46.502Z,80.22
2023-04-29T18:36:14.654Z,81.71
2023-04-29T18:38:41.844Z,81.61
2023-04-29T18:41:09.332Z,79.45
2023-04-29T18:43:36.805Z,80.15
2023-04-29T18:46:03.899Z,78.80
2023-04-29T18:48:31.365Z,80.29
2023-04-29T18:51:00.368Z,79.20
2023-04-29T18:53:27.369Z,79.00
2023-04-29T18:55:54.594Z,78.66
2023-04-29T18:58:21.842Z,77.70
2023-04-29T19:00:49.133Z,79.53
2023-04-29T19:03:16.171Z,78.47
2023-04-29T19:05:43.537Z,79.32
2023-04-29T19:08:10.594Z,81.06
2023-04-29T19:10:37.627Z,80.95
2023-04-29T19:13:04.669Z,79.79
2023-04-29T19:15:32.331Z,79.58
2023-04-29T19:17:59.362Z,81.37
2023-04-29T19:20:27.845Z,82.73
2023-04-29T19:22:54.817Z,86.04
2023-04-29T19:25:22.005Z,87.90
2023-04-29T19:27:51.993Z,89.67
2023-04-29T19:30:19.183Z,90.56
2023-04-29T19:32:47.112Z,93.35
2023-04-29T19:35:14.205Z,92.54
2023-04-29T19:37:41.321Z,95.74
2023-04-29T19:40:11.251Z,100.00
2023-04-29T19:42:39.502Z,100.00
2023-04-29T19:45:07.928Z,100.00
2023-04-29T19:47:35.485Z,100.00
2023-04-29T19:50:02.797Z,100.00
2023-04-29T19:52:30.129Z,100.00
2023-04-29T19:54:57.189Z,99.71
2023-04-29T19:57:24.316Z,100.00
2023-04-29T19:59:51.466Z,97.03
2023-04-29T20:02:19.332Z,95.62
2023-04-29T20:04:46.613Z,95.93
2023-04-29T20:07:13.964Z,99.50
2023-04-29T20:09:41.027Z,100.00
2023-04-29T20:12:08.003Z,100.00
2023-04-29T20:14:34.967Z,100.00
2023-04-29T20:17:02.159Z,100.00
2023-04-29T20:19:29.269Z,100.00
2023-04-29T20:21:56.296Z,100.00
2023-04-29T20:24:23.791Z,100.00
2023-04-29T20:26:50.765Z,100.00
2023-04-29T20:29:17.736Z,100.00
2023-04-29T20:31:44.886Z,100.00
2023-04-29T20:34:12.473Z,100.00
2023-04-29T20:36:39.669Z,100.00
2023-04-29T20:39:07.201Z,100.00
2023-04-29T20:41:34.206Z,100.00
2023-04-29T20:44:01.289Z,100.00
2023-04-29T20:46:28.276Z,99.81
2023-04-29T20:48:55.212Z,99.80
2023-04-29T20:51:22.309Z,96.82
2023-04-29T20:53:50.002Z,96.71
2023-04-29T20:56:17.008Z,96.29
2023-04-29T20:58:43.980Z,96.14
2023-04-29T21:01:11.006Z,94.67
2023-04-29T21:03:38.489Z,94.55
2023-04-29T21:06:05.551Z,97.58
2023-04-29T21:08:32.560Z,96.45
2023-04-29T21:11:00.128Z,93.65
2023-04-29T21:13:27.126Z,94.48
2023-04-29T21:15:54.250Z,93.52
2023-04-29T21:18:21.336Z,92.56
2023-04-29T21:20:48.252Z,95.63
2023-04-29T21:23:15.728Z,92.84
2023-04-29T21:25:42.688Z,91.71
2023-04-29T21:28:09.749Z,92.89
2023-04-29T21:30:36.789Z,93.47
2023-04-29T21:33:03.832Z,90.77
2023-04-29T21:35:31.016Z,91.43
2023-04-29T21:37:58.187Z,91.00
2023-04-29T21:40:26.811Z,90.05
2023-04-29T21:42:55.536Z,90.78
2023-04-29T21:45:22.720Z,97.94
2023-04-29T21:47:50.179Z,99.13
2023-04-29T21:50:17.190Z,100.00
2023-04-29T21:52:44.277Z,100.00
2023-04-29T21:55:11.420Z,100.00
2023-04-29T21:57:44.518Z,96.77
2023-04-29T22:00:28.907Z,100.00
2023-04-29T22:02:55.941Z,96.51
2023-04-29T22:05:22.928Z,98.12
2023-04-29T22:07:49.907Z,96.21
2023-04-29T22:10:16.897Z,95.95
2023-04-29T22:12:43.859Z,95.60
2023-04-29T22:15:20.953Z,95.62
2023-04-29T22:17:54.949Z,97.50
2023-04-29T22:20:21.908Z,94.78
2023-04-29T22:22:48.912Z,94.49
2023-04-29T22:25:15.944Z,94.47
2023-04-29T22:27:42.896Z,92.17
2023-04-29T22:30:10.260Z,92.12
2023-04-29T22:32:37.250Z,91.53
2023-04-29T22:35:05.009Z,94.09
2023-04-29T22:37:32.138Z,92.35
2023-04-29T22:39:59.086Z,91.59
2023-04-29T22:42:26.111Z,93.93
2023-04-29T22:44:53.089Z,91.91
2023-04-29T22:47:20.099Z,91.65
2023-04-29T22:49:47.087Z,91.67
2023-04-29T22:52:16.717Z,92.02
2023-04-29T22:54:43.703Z,93.57
2023-04-29T22:57:10.793Z,94.65
2023-04-29T22:59:37.710Z,95.98
2023-04-29T23:02:04.950Z,93.81
2023-04-29T23:04:33.693Z,95.81
2023-04-29T23:07:01.521Z,96.93
2023-04-29T23:09:28.843Z,100.00
2023-04-29T23:11:55.951Z,98.14
2023-04-29T23:14:23.098Z,96.05
2023-04-29T23:16:51.322Z,95.52
2023-04-29T23:19:18.356Z,99.11
2023-04-29T23:21:45.417Z,100.00
2023-04-29T23:24:12.388Z,100.00
2023-04-29T23:26:39.266Z,100.00
2023-04-29T23:29:06.469Z,100.00
2023-04-29T23:31:33.482Z,100.00
2023-04-29T23:34:01.210Z,100.00
2023-04-29T23:36:28.403Z,99.21
2023-04-29T23:38:55.372Z,98.55
2023-04-29T23:41:22.419Z,100.00
2023-04-29T23:43:49.366Z,100.00
2023-04-29T23:46:16.323Z,100.00
2023-04-29T23:48:43.530Z,100.00
2023-04-29T23:51:10.852Z,100.00
2023-04-29T23:53:39.611Z,100.00
2023-04-29T23:56:06.729Z,100.00
2023-04-29T23:58:33.710Z,100.00
